createdAt,value
2018-08-17T00:01:17.796Z,51.35
2018-08-17T00:03:50.951Z,51.74
2018-08-17T00:06:22.446Z,51.85
2018-08-17T00:08:55.585Z,52.12
2018-08-17T00:11:25.360Z,51.88
2018-08-17T00:13:55.369Z,51.14
2018-08-17T00:16:26.779Z,51.97
2018-08-17T00:18:56.216Z,52.18
2018-08-17T00:21:26.733Z,50.89
2018-08-17T00:23:56.757Z,50.96
2018-08-17T00:26:26.924Z,51.76
2018-08-17T00:28:57.498Z,51.40
2018-08-17T00:31:28.077Z,52.04
2018-08-17T00:33:59.414Z,51.45
2018-08-17T00:36:30.590Z,51.51
2018-08-17T00:39:00.346Z,51.96
2018-08-17T00:41:30.439Z,51.43
2018-08-17T00:44:03.003Z,50.85
2018-08-17T00:46:32.711Z,50.95
2018-08-17T00:49:02.261Z,50.23
2018-08-17T00:51:32.008Z,50.67
2018-08-17T00:57:14.669Z,51.09
2018-08-17T00:59:45.979Z,50.92
2018-08-17T01:02:16.639Z,49.99
2018-08-17T01:04:46.574Z,50.90
2018-08-17T01:07:18.176Z,50.87
2018-08-17T01:09:50.745Z,50.71
2018-08-17T01:12:21.342Z,50.82
2018-08-17T01:14:51.293Z,51.22
2018-08-17T01:17:21.987Z,50.14
2018-08-17T01:19:52.668Z,51.16
2018-08-17T01:22:33.077Z,50.59
2018-08-17T01:25:03.251Z,50.74
2018-08-17T01:27:34.553Z,50.97
2018-08-17T01:30:08.596Z,50.55
2018-08-17T01:32:38.816Z,52.07
2018-08-17T01:35:08.670Z,52.87
2018-08-17T01:37:38.342Z,53.94
2018-08-17T01:40:08.468Z,53.61
2018-08-17T01:42:38.289Z,53.19
2018-08-17T01:45:13.914Z,52.56
2018-08-17T01:47:43.786Z,53.60
2018-08-17T01:50:13.176Z,53.28
2018-08-17T01:52:43.919Z,54.36
2018-08-17T01:55:16.454Z,55.35
2018-08-17T01:57:45.833Z,56.26
2018-08-17T02:00:17.795Z,56.43
2018-08-17T02:02:47.378Z,57.04
2018-08-17T02:05:21.105Z,57.70
2018-08-17T02:07:52.280Z,57.85
2018-08-17T02:10:21.865Z,58.46
2018-08-17T02:12:51.488Z,58.58
2018-08-17T02:15:25.781Z,58.81
2018-08-17T02:17:55.628Z,60.18
2018-08-17T02:20:25.609Z,60.33
2018-08-17T02:22:55.240Z,61.07
2018-08-17T02:25:27.834Z,60.69
2018-08-17T02:27:59.716Z,61.41
2018-08-17T02:30:32.319Z,60.86
2018-08-17T02:33:01.976Z,61.22
2018-08-17T02:35:34.344Z,61.15
2018-08-17T02:38:04.263Z,61.21
2018-08-17T02:40:34.053Z,62.29
2018-08-17T02:43:03.735Z,61.35
2018-08-17T02:45:41.373Z,61.89
2018-08-17T02:48:13.135Z,61.65
2018-08-17T02:50:43.797Z,61.91
2018-08-17T02:53:13.220Z,61.05
2018-08-17T02:55:44.388Z,61.92
2018-08-17T03:01:00.053Z,61.95
2018-08-17T03:03:33.846Z,61.84
2018-08-17T03:06:03.866Z,60.79
2018-08-17T03:08:34.009Z,60.48
2018-08-17T03:11:04.341Z,60.06
2018-08-17T03:13:38.963Z,60.12
2018-08-17T03:16:08.624Z,60.68
2018-08-17T03:18:38.184Z,60.97
2018-08-17T03:21:08.132Z,60.57
2018-08-17T03:23:37.701Z,60.25
2018-08-17T03:26:08.147Z,60.57
2018-08-17T03:28:37.875Z,61.11
2018-08-17T03:31:07.949Z,60.24
2018-08-17T03:33:37.561Z,60.80
2018-08-17T03:36:08.204Z,61.59
2018-08-17T03:38:37.781Z,61.77
2018-08-17T03:41:07.472Z,63.19
2018-08-17T03:43:37.961Z,62.45
2018-08-17T03:46:08.561Z,62.68
2018-08-17T03:48:38.984Z,62.83
2018-08-17T03:51:08.838Z,63.60
2018-08-17T03:53:39.451Z,63.73
2018-08-17T03:56:09.466Z,62.59
2018-08-17T03:58:39.283Z,62.46
2018-08-17T04:01:09.039Z,61.99
2018-08-17T04:03:38.973Z,62.86
2018-08-17T04:06:08.568Z,61.44
2018-08-17T04:08:38.680Z,61.17
2018-08-17T04:11:10.635Z,61.17
2018-08-17T04:13:40.529Z,60.87
2018-08-17T04:16:10.244Z,59.78
2018-08-17T04:18:44.729Z,59.66
2018-08-17T04:21:16.644Z,60.17
2018-08-17T04:23:46.926Z,59.58
2018-08-17T04:26:17.865Z,59.99
2018-08-17T04:28:47.517Z,59.37
2018-08-17T04:31:20.044Z,58.77
2018-08-17T04:33:50.597Z,58.52
2018-08-17T04:36:20.498Z,58.36
2018-08-17T04:38:50.887Z,57.72
2018-08-17T04:41:21.053Z,58.72
2018-08-17T04:43:51.537Z,57.56
2018-08-17T04:46:22.343Z,57.37
2018-08-17T04:48:58.913Z,57.04
2018-08-17T04:51:31.619Z,56.93
2018-08-17T04:54:06.012Z,57.82
2018-08-17T04:56:35.742Z,57.25
2018-08-17T04:59:05.535Z,57.52
2018-08-17T05:01:35.110Z,58.72
2018-08-17T05:04:04.549Z,59.40
2018-08-17T05:06:34.370Z,60.62
2018-08-17T05:09:04.239Z,61.38
2018-08-17T05:11:40.975Z,62.42
2018-08-17T05:14:13.107Z,62.42
2018-08-17T05:16:44.472Z,62.66
2018-08-17T05:19:13.942Z,62.96
2018-08-17T05:21:43.787Z,62.82
2018-08-17T05:24:16.426Z,62.64
2018-08-17T05:26:46.840Z,63.12
2018-08-17T05:29:16.633Z,64.51
2018-08-17T05:31:48.324Z,64.69
2018-08-17T05:34:18.715Z,65.06
2018-08-17T05:36:48.836Z,65.79
2018-08-17T05:39:18.346Z,65.89
2018-08-17T05:41:48.076Z,66.04
2018-08-17T05:44:18.686Z,66.24
2018-08-17T05:46:48.697Z,65.62
2018-08-17T05:49:19.526Z,65.94
2018-08-17T05:51:48.817Z,66.84
2018-08-17T05:54:20.294Z,66.29
2018-08-17T05:56:49.842Z,66.50
2018-08-17T05:59:19.276Z,66.01
2018-08-17T06:01:50.797Z,65.47
2018-08-17T06:04:21.196Z,66.53
2018-08-17T06:06:53.379Z,67.66
2018-08-17T06:09:23.811Z,68.24
2018-08-17T06:11:54.584Z,69.26
2018-08-17T06:14:26.004Z,68.61
2018-08-17T06:16:57.521Z,67.75
2018-08-17T06:19:27.717Z,69.45
2018-08-17T06:21:57.729Z,70.23
2018-08-17T06:24:28.418Z,70.05
2018-08-17T06:26:59.760Z,70.00
2018-08-17T06:29:30.676Z,69.94
2018-08-17T06:32:01.490Z,71.32
2018-08-17T06:34:32.180Z,71.60
2018-08-17T06:37:01.453Z,71.02
2018-08-17T06:39:33.929Z,71.44
2018-08-17T06:42:03.747Z,71.41
2018-08-17T06:44:34.214Z,70.70
2018-08-17T06:47:08.121Z,71.01
2018-08-17T06:49:38.967Z,71.25
2018-08-17T06:52:11.145Z,70.64
2018-08-17T06:54:44.229Z,71.26
2018-08-17T06:57:17.914Z,70.93
2018-08-17T06:59:49.301Z,69.54
2018-08-17T07:02:22.044Z,69.25
2018-08-17T07:04:52.599Z,69.97
2018-08-17T07:07:24.675Z,70.29
2018-08-17T07:09:59.695Z,69.13
2018-08-17T07:12:30.318Z,68.77
2018-08-17T07:15:07.441Z,68.66
2018-08-17T07:17:37.778Z,67.95
2018-08-17T07:20:11.353Z,68.91
2018-08-17T07:22:42.675Z,67.87
2018-08-17T07:25:13.859Z,68.10
2018-08-17T07:27:51.451Z,67.76
2018-08-17T07:30:24.352Z,68.16
2018-08-17T07:32:55.750Z,67.51
2018-08-17T07:35:27.356Z,67.31
2018-08-17T07:37:58.660Z,66.60
2018-08-17T07:40:31.423Z,65.90
2018-08-17T07:43:10.130Z,65.94
2018-08-17T07:45:41.582Z,66.74
2018-08-17T07:48:14.220Z,66.63
2018-08-17T07:50:44.915Z,65.60
2018-08-17T07:53:14.457Z,65.41
2018-08-17T07:55:44.185Z,65.74
2018-08-17T07:58:16.339Z,64.80
2018-08-17T08:00:47.046Z,65.04
2018-08-17T08:03:18.809Z,65.64
2018-08-17T08:05:52.325Z,66.07
2018-08-17T08:08:30.664Z,66.63
2018-08-17T08:11:02.656Z,66.26
2018-08-17T08:13:34.180Z,66.35
2018-08-17T08:16:14.330Z,65.77
2018-08-17T08:18:44.573Z,64.00
2018-08-17T08:21:14.161Z,65.13
2018-08-17T08:23:44.432Z,64.66
2018-08-17T08:26:15.100Z,63.60
2018-08-17T08:28:46.653Z,63.57
2018-08-17T08:31:17.154Z,63.14
2018-08-17T08:33:46.608Z,63.92
2018-08-17T08:36:17.421Z,63.35
2018-08-17T08:38:50.302Z,62.76
2018-08-17T08:41:20.629Z,61.59
2018-08-17T08:43:52.764Z,61.92
2018-08-17T08:46:27.215Z,62.82
2018-08-17T08:48:56.520Z,63.44
2018-08-17T08:51:27.682Z,63.80
2018-08-17T08:53:58.477Z,63.21
2018-08-17T08:56:29.498Z,62.91
2018-08-17T08:59:02.937Z,63.79
2018-08-17T09:01:34.966Z,64.14
2018-08-17T09:04:05.925Z,64.07
2018-08-17T09:06:39.351Z,64.10
2018-08-17T09:09:09.697Z,65.86
2018-08-17T09:11:39.914Z,64.58
2018-08-17T09:14:10.516Z,63.65
2018-08-17T09:16:41.695Z,64.38
2018-08-17T09:19:12.737Z,63.68
2018-08-17T09:21:43.381Z,63.44
2018-08-17T09:24:13.894Z,63.86
2018-08-17T09:26:46.152Z,63.68
2018-08-17T09:29:19.901Z,63.64
2018-08-17T09:31:53.251Z,62.42
2018-08-17T09:37:06.189Z,64.57
2018-08-17T09:39:39.406Z,63.72
2018-08-17T09:42:09.003Z,63.44
2018-08-17T09:44:39.423Z,63.04
2018-08-17T09:47:12.708Z,63.16
2018-08-17T09:49:43.123Z,62.32
2018-08-17T09:52:12.990Z,63.21
2018-08-17T09:54:43.384Z,62.49
2018-08-17T09:57:14.684Z,62.32
2018-08-17T09:59:46.450Z,63.23
2018-08-17T10:02:23.531Z,63.18
2018-08-17T10:05:00.327Z,62.16
2018-08-17T10:07:35.595Z,61.85
2018-08-17T10:10:27.453Z,61.30
2018-08-17T10:12:57.764Z,61.18
2018-08-17T10:15:38.184Z,60.25
2018-08-17T10:18:08.461Z,58.30
2018-08-17T10:20:38.483Z,57.12
2018-08-17T10:23:15.330Z,55.60
2018-08-17T10:25:47.018Z,55.12
2018-08-17T10:28:18.803Z,54.94
2018-08-17T10:30:58.242Z,54.86
2018-08-17T10:33:30.695Z,55.17
2018-08-17T10:36:04.652Z,54.35
2018-08-17T10:38:34.278Z,54.14
2018-08-17T10:41:04.178Z,55.02
2018-08-17T10:43:36.073Z,55.58
2018-08-17T10:46:11.385Z,55.81
2018-08-17T10:48:43.566Z,56.29
2018-08-17T10:51:13.829Z,55.86
2018-08-17T10:53:48.395Z,56.49
2018-08-17T10:56:21.414Z,56.69
2018-08-17T10:58:51.745Z,57.28
2018-08-17T11:01:22.614Z,56.37
2018-08-17T11:03:56.114Z,56.64
2018-08-17T11:06:26.593Z,55.86
2018-08-17T11:09:00.068Z,56.75
2018-08-17T11:11:37.914Z,57.24
2018-08-17T11:14:17.707Z,56.71
2018-08-17T11:19:33.622Z,56.48
2018-08-17T11:22:08.111Z,55.98
2018-08-17T11:24:40.825Z,54.82
2018-08-17T11:27:10.478Z,55.05
2018-08-17T11:29:43.518Z,54.63
2018-08-17T11:32:16.114Z,55.30
2018-08-17T11:34:58.765Z,55.60
2018-08-17T11:37:28.447Z,54.53
2018-08-17T11:40:04.477Z,54.43
2018-08-17T11:42:40.443Z,53.98
2018-08-17T11:45:31.324Z,54.88
2018-08-17T11:48:03.065Z,54.77
2018-08-17T11:50:40.890Z,55.06
2018-08-17T11:53:10.409Z,54.95
2018-08-17T11:55:40.449Z,54.94
2018-08-17T11:58:09.765Z,53.87
2018-08-17T12:06:17.821Z,54.51
2018-08-17T12:08:50.967Z,53.79
2018-08-17T12:14:23.635Z,53.65
2018-08-17T12:17:01.348Z,53.43
2018-08-17T12:19:33.943Z,53.51
2018-08-17T12:22:07.818Z,54.54
2018-08-17T12:24:40.063Z,54.84
2018-08-17T12:27:10.961Z,53.44
2018-08-17T12:29:42.869Z,52.85
2018-08-17T12:32:27.224Z,50.98
2018-08-17T12:34:58.282Z,50.06
2018-08-17T12:37:29.303Z,48.27
2018-08-17T12:40:12.832Z,48.89
2018-08-17T12:42:44.111Z,47.00
2018-08-17T12:45:20.250Z,46.81
2018-08-17T12:47:50.553Z,46.10
2018-08-17T12:50:30.615Z,46.35
2018-08-17T12:53:07.513Z,45.72
2018-08-17T12:55:38.855Z,46.20
2018-08-17T12:58:23.371Z,46.11
2018-08-17T13:00:55.396Z,45.37
2018-08-17T13:03:26.851Z,45.92
2018-08-17T13:05:59.294Z,43.75
2018-08-17T13:08:28.800Z,42.16
2018-08-17T13:11:00.084Z,42.25
2018-08-17T13:13:31.673Z,42.16
2018-08-17T13:16:13.388Z,42.55
2018-08-17T13:18:44.247Z,42.93
2018-08-17T13:21:14.377Z,42.87
2018-08-17T13:23:43.988Z,41.63
2018-08-17T13:26:16.339Z,41.97
2018-08-17T13:28:47.292Z,42.91
2018-08-17T13:31:19.796Z,42.32
2018-08-17T13:33:50.804Z,41.84
2018-08-17T13:36:22.433Z,40.69
2018-08-17T13:38:53.024Z,39.83
2018-08-17T13:41:24.515Z,39.90
2018-08-17T13:43:55.739Z,37.17
2018-08-17T13:46:26.081Z,36.86
2018-08-17T13:49:17.392Z,35.20
2018-08-17T13:51:56.985Z,36.17
2018-08-17T13:54:29.285Z,37.91
2018-08-17T13:57:02.628Z,37.03
2018-08-17T13:59:44.446Z,36.26
2018-08-17T14:02:15.861Z,35.40
2018-08-17T14:04:46.161Z,33.87
2018-08-17T14:07:17.227Z,34.64
2018-08-17T14:09:48.335Z,33.19
2018-08-17T14:12:24.768Z,32.70
2018-08-17T14:14:54.496Z,32.78
2018-08-17T14:17:24.891Z,33.43
2018-08-17T14:19:57.901Z,35.12
2018-08-17T14:22:28.459Z,34.29
2018-08-17T14:24:58.943Z,35.03
2018-08-17T14:27:28.953Z,33.35
2018-08-17T14:30:19.712Z,31.77
2018-08-17T14:32:51.919Z,32.87
2018-08-17T14:35:22.625Z,32.98
2018-08-17T14:37:56.067Z,31.62
2018-08-17T14:40:27.335Z,33.47
2018-08-17T14:42:59.132Z,33.41
2018-08-17T14:45:28.780Z,34.49
2018-08-17T14:47:59.033Z,33.08
2018-08-17T14:50:29.979Z,32.68
2018-08-17T14:53:03.183Z,34.14
2018-08-17T14:55:32.760Z,33.86
2018-08-17T14:58:03.606Z,33.21
2018-08-17T15:00:38.027Z,33.37
2018-08-17T15:03:13.392Z,33.86
2018-08-17T15:05:43.736Z,33.67
2018-08-17T15:08:13.112Z,33.21
2018-08-17T15:10:42.427Z,33.61
2018-08-17T15:13:15.080Z,33.24
2018-08-17T15:15:47.673Z,34.21
2018-08-17T15:18:26.878Z,33.89
2018-08-17T15:21:00.391Z,33.44
2018-08-17T15:23:35.424Z,33.29
2018-08-17T15:26:10.582Z,33.42
2018-08-17T15:28:42.535Z,34.25
2018-08-17T15:31:17.190Z,33.56
2018-08-17T15:33:51.961Z,33.12
2018-08-17T15:39:04.457Z,33.26
2018-08-17T15:41:36.631Z,33.18
2018-08-17T15:44:13.886Z,33.02
2018-08-17T15:46:43.835Z,32.89
2018-08-17T15:49:20.613Z,32.84
2018-08-17T15:51:51.930Z,32.72
2018-08-17T15:54:25.533Z,32.60
2018-08-17T15:56:55.908Z,32.84
2018-08-17T15:59:25.867Z,32.93
2018-08-17T16:01:56.952Z,32.87
2018-08-17T16:04:51.149Z,33.03
2018-08-17T16:07:22.254Z,34.40
2018-08-17T16:09:58.281Z,33.97
2018-08-17T16:12:29.719Z,33.99
2018-08-17T16:15:00.587Z,33.17
2018-08-17T16:17:30.871Z,33.42
2018-08-17T16:20:01.391Z,34.05
2018-08-17T16:22:31.244Z,33.84
2018-08-17T16:25:03.215Z,33.59
2018-08-17T16:27:34.952Z,33.12
2018-08-17T16:30:13.657Z,34.14
2018-08-17T16:32:44.614Z,34.29
2018-08-17T16:35:18.003Z,34.45
2018-08-17T16:37:55.952Z,33.49
2018-08-17T16:40:25.672Z,34.11
2018-08-17T16:43:00.547Z,34.16
2018-08-17T16:45:31.035Z,34.50
2018-08-17T16:48:13.549Z,34.08
2018-08-17T16:50:46.371Z,33.43
2018-08-17T16:53:23.760Z,33.96
2018-08-17T16:55:56.703Z,32.80
2018-08-17T16:58:29.604Z,33.66
2018-08-17T17:01:00.726Z,32.45
2018-08-17T17:03:31.144Z,33.09
2018-08-17T17:06:08.907Z,32.35
2018-08-17T17:08:39.618Z,33.49
2018-08-17T17:11:10.655Z,33.37
2018-08-17T17:13:44.795Z,33.15
2018-08-17T17:16:16.273Z,33.64
2018-08-17T17:18:46.881Z,33.48
2018-08-17T17:21:16.313Z,33.07
2018-08-17T17:23:53.598Z,32.89
2018-08-17T17:26:26.198Z,33.76
2018-08-17T17:28:58.764Z,33.33
2018-08-17T17:31:29.322Z,32.82
2018-08-17T17:34:04.084Z,32.97
2018-08-17T17:36:36.600Z,33.04
2018-08-17T17:42:03.809Z,34.33
2018-08-17T17:44:36.761Z,35.16
2018-08-17T17:47:07.298Z,35.37
2018-08-17T17:49:39.258Z,34.83
2018-08-17T17:52:10.244Z,34.41
2018-08-17T17:54:41.711Z,34.57
2018-08-17T17:57:14.542Z,34.67
2018-08-17T17:59:51.741Z,34.52
2018-08-17T18:02:23.647Z,34.43
2018-08-17T18:04:55.259Z,35.14
2018-08-17T18:07:34.833Z,34.46
2018-08-17T18:10:06.358Z,34.90
2018-08-17T18:12:38.939Z,34.94
2018-08-17T18:15:13.935Z,34.53
2018-08-17T18:17:43.937Z,35.19
2018-08-17T18:20:15.939Z,35.01
2018-08-17T18:22:45.739Z,35.24
2018-08-17T18:25:18.764Z,35.42
2018-08-17T18:27:51.407Z,35.75
2018-08-17T18:30:26.244Z,35.78
2018-08-17T18:32:56.470Z,35.45
2018-08-17T18:35:26.836Z,35.53
2018-08-17T18:37:58.728Z,36.22
2018-08-17T18:40:29.361Z,36.15
2018-08-17T18:42:59.013Z,36.10
2018-08-17T18:45:31.056Z,36.01
2018-08-17T18:48:03.449Z,36.20
2018-08-17T18:50:36.002Z,36.28
2018-08-17T18:53:05.399Z,36.96
2018-08-17T18:55:36.031Z,37.07
2018-08-17T18:58:06.162Z,36.69
2018-08-17T19:00:50.221Z,36.43
2018-08-17T19:03:20.276Z,37.58
2018-08-17T19:06:01.415Z,37.32
2018-08-17T19:08:34.117Z,37.30
2018-08-17T19:11:07.200Z,37.19
2018-08-17T19:13:37.360Z,37.77
2018-08-17T19:16:08.720Z,37.33
2018-08-17T19:21:32.323Z,37.37
2018-08-17T19:24:02.330Z,38.35
2018-08-17T19:26:35.558Z,37.32
2018-08-17T19:29:06.263Z,38.34
2018-08-17T19:31:40.380Z,38.73
2018-08-17T19:34:20.303Z,38.72
2018-08-17T19:36:56.630Z,38.79
2018-08-17T19:39:35.532Z,38.44
2018-08-17T19:42:15.315Z,39.07
2018-08-17T19:44:48.311Z,39.21
2018-08-17T19:47:30.294Z,39.90
2018-08-17T19:50:02.046Z,40.00
2018-08-17T19:52:33.783Z,40.00
2018-08-17T19:55:17.761Z,40.31
2018-08-17T19:57:51.263Z,40.43
2018-08-17T20:00:24.433Z,40.30
2018-08-17T20:02:58.792Z,40.83
2018-08-17T20:05:40.800Z,41.35
2018-08-17T20:08:17.002Z,40.62
2018-08-17T20:10:49.225Z,41.00
2018-08-17T20:13:23.926Z,41.74
2018-08-17T20:15:53.781Z,41.87
2018-08-17T20:18:27.809Z,42.48
2018-08-17T20:20:59.543Z,42.53
2018-08-17T20:23:30.337Z,42.03
2018-08-17T20:26:01.444Z,42.42
2018-08-17T20:28:35.700Z,42.15
2018-08-17T20:31:09.889Z,42.19
2018-08-17T20:33:42.189Z,43.88
2018-08-17T20:36:18.528Z,42.85
2018-08-17T20:38:52.208Z,43.79
2018-08-17T20:41:25.596Z,43.65
2018-08-17T20:43:59.468Z,43.51
2018-08-17T20:46:32.744Z,44.68
2018-08-17T20:49:05.656Z,44.79
2018-08-17T20:51:41.054Z,45.46
2018-08-17T20:54:12.843Z,45.38
2018-08-17T20:56:51.053Z,45.51
2018-08-17T20:59:26.318Z,46.24
2018-08-17T21:01:58.022Z,45.43
2018-08-17T21:04:30.080Z,46.46
2018-08-17T21:07:06.974Z,45.95
2018-08-17T21:09:37.991Z,45.82
2018-08-17T21:12:08.444Z,45.83
2018-08-17T21:14:39.549Z,46.11
2018-08-17T21:17:10.692Z,45.99
2018-08-17T21:19:42.661Z,46.05
2018-08-17T21:22:14.793Z,46.41
2018-08-17T21:24:46.621Z,46.67
2018-08-17T21:27:17.530Z,46.80
2018-08-17T21:29:48.240Z,46.74
2018-08-17T21:32:18.799Z,46.36
2018-08-17T21:34:52.238Z,47.18
2018-08-17T21:37:22.274Z,47.07
2018-08-17T21:39:51.960Z,46.09
2018-08-17T21:42:21.294Z,46.75
2018-08-17T21:44:51.907Z,46.70
2018-08-17T21:47:22.630Z,46.66
2018-08-17T21:50:05.378Z,46.42
2018-08-17T21:52:35.812Z,46.70
2018-08-17T21:55:10.694Z,46.71
2018-08-17T22:00:33.731Z,46.53
2018-08-17T22:03:08.411Z,47.06
2018-08-17T22:05:44.166Z,47.69
2018-08-17T22:08:14.524Z,47.57
2018-08-17T22:10:43.935Z,47.15
2018-08-17T22:13:25.309Z,46.86
2018-08-17T22:15:57.471Z,47.58
2018-08-17T22:18:27.078Z,47.01
2018-08-17T22:20:57.981Z,46.84
2018-08-17T22:23:31.730Z,47.69
2018-08-17T22:26:02.238Z,47.79
2018-08-17T22:28:34.365Z,47.22
2018-08-17T22:31:26.776Z,47.86
2018-08-17T22:33:57.267Z,47.66
2018-08-17T22:36:29.252Z,47.31
2018-08-17T22:39:00.613Z,47.37
2018-08-17T22:41:31.968Z,47.60
2018-08-17T22:44:02.787Z,47.50
2018-08-17T22:46:34.327Z,47.97
2018-08-17T22:49:07.514Z,48.71
2018-08-17T22:51:40.591Z,48.41
2018-08-17T22:54:19.605Z,48.15
2018-08-17T22:56:55.571Z,48.09
2018-08-17T22:59:26.769Z,48.19
2018-08-17T23:01:57.382Z,49.08
2018-08-17T23:04:37.900Z,48.81
2018-08-17T23:07:24.677Z,48.89
2018-08-17T23:10:03.364Z,49.10
2018-08-17T23:12:39.631Z,49.67
2018-08-17T23:15:15.782Z,49.46
2018-08-17T23:17:49.530Z,50.26
2018-08-17T23:20:25.859Z,50.18
2018-08-17T23:22:58.058Z,50.39
2018-08-17T23:25:28.872Z,49.96
2018-08-17T23:27:58.385Z,50.19
2018-08-17T23:30:28.704Z,50.20
2018-08-17T23:32:58.622Z,50.78
2018-08-17T23:35:28.603Z,51.24
2018-08-17T23:37:58.288Z,50.59
2018-08-17T23:40:28.232Z,51.16
2018-08-17T23:43:01.023Z,50.60
2018-08-17T23:45:31.026Z,50.67
2018-08-17T23:48:00.332Z,51.40
2018-08-17T23:50:30.206Z,50.62
2018-08-17T23:53:01.131Z,51.10
2018-08-17T23:55:31.397Z,51.04
2018-08-17T23:58:01.724Z,51.62
